createdAt,value
2023-05-17T00:00:06.958Z,100404.84
2023-05-17T00:02:34.628Z,100416.56
2023-05-17T00:05:03.862Z,100419.81
2023-05-17T00:07:31.514Z,100420.47
2023-05-17T00:10:00.219Z,100423.69
2023-05-17T00:12:27.892Z,100423.56
2023-05-17T00:14:55.472Z,100422.59
2023-05-17T00:17:23.065Z,100432.00
2023-05-17T00:19:51.108Z,100430.19
2023-05-17T00:22:20.085Z,100429.34
2023-05-17T00:24:47.665Z,100423.13
2023-05-17T00:27:15.248Z,100428.06
2023-05-17T00:29:43.302Z,100429.41
2023-05-17T00:32:12.205Z,100428.31
2023-05-17T00:34:39.899Z,100439.31
2023-05-17T00:37:07.940Z,100437.44
2023-05-17T00:39:36.911Z,100434.78
2023-05-17T00:42:05.726Z,100440.66
2023-05-17T00:44:33.256Z,100441.38
2023-05-17T00:47:00.883Z,100440.34
2023-05-17T00:49:28.489Z,100440.34
2023-05-17T00:51:56.654Z,100441.06
2023-05-17T00:54:24.600Z,100450.34
2023-05-17T00:56:53.786Z,100451.88
2023-05-17T00:59:22.303Z,100452.75
2023-05-17T01:01:51.526Z,100453.50
2023-05-17T01:04:19.715Z,100455.00
2023-05-17T01:06:47.402Z,100457.50
2023-05-17T01:09:15.078Z,100458.16
2023-05-17T01:11:49.587Z,100458.16
2023-05-17T01:14:33.333Z,100456.41
2023-05-17T01:17:02.458Z,100459.53
2023-05-17T01:19:51.008Z,100461.03
2023-05-17T01:22:28.404Z,100462.47
2023-05-17T01:25:12.058Z,100470.00
2023-05-17T01:27:44.450Z,100473.34
2023-05-17T01:30:15.442Z,100474.16
2023-05-17T01:32:44.908Z,100474.00
2023-05-17T01:35:13.102Z,100470.34
2023-05-17T01:37:40.852Z,100471.13
2023-05-17T01:40:10.352Z,100466.81
2023-05-17T01:42:42.588Z,100470.84
2023-05-17T01:45:17.533Z,100478.44
2023-05-17T01:47:54.213Z,100483.56
2023-05-17T01:50:25.237Z,100485.16
2023-05-17T01:52:55.126Z,100495.22
2023-05-17T01:55:32.169Z,100496.09
2023-05-17T01:58:05.126Z,100495.22
2023-05-17T02:00:33.482Z,100501.13
2023-05-17T02:03:01.172Z,100503.69
2023-05-17T02:05:28.813Z,100502.75
2023-05-17T02:07:56.685Z,100502.63
2023-05-17T02:10:24.391Z,100504.41
2023-05-17T02:12:51.940Z,100508.47
2023-05-17T02:15:22.408Z,100505.91
2023-05-17T02:17:50.130Z,100501.44
2023-05-17T02:20:17.878Z,100509.28
2023-05-17T02:22:45.929Z,100506.88
2023-05-17T02:25:13.579Z,100506.72
2023-05-17T02:27:41.209Z,100508.31
2023-05-17T02:30:09.703Z,100514.28
2023-05-17T02:32:38.752Z,100503.13
2023-05-17T02:35:08.340Z,100509.91
2023-05-17T02:37:36.459Z,100509.09
2023-05-17T02:40:08.543Z,100513.59
2023-05-17T02:42:36.340Z,100506.72
2023-05-17T02:45:04.288Z,100516.94
2023-05-17T02:47:32.093Z,100506.56
2023-05-17T02:50:01.158Z,100508.31
2023-05-17T02:52:28.990Z,100513.09
2023-05-17T02:54:56.801Z,100514.13
2023-05-17T02:57:24.470Z,100516.59
2023-05-17T02:59:52.176Z,100514.03
2023-05-17T03:02:20.937Z,100513.28
2023-05-17T03:04:50.750Z,100518.44
2023-05-17T03:07:20.220Z,100517.50
2023-05-17T03:09:47.873Z,100526.66
2023-05-17T03:12:15.896Z,100525.63
2023-05-17T03:14:43.522Z,100531.59
2023-05-17T03:17:12.092Z,100527.22
2023-05-17T03:19:41.015Z,100524.59
2023-05-17T03:22:08.837Z,100524.41
2023-05-17T03:24:37.955Z,100527.78
2023-05-17T03:27:06.495Z,100526.16
2023-05-17T03:29:35.692Z,100522.03
2023-05-17T03:32:04.394Z,100523.00
2023-05-17T03:34:32.573Z,100529.84
2023-05-17T03:37:02.031Z,100533.38
2023-05-17T03:39:30.160Z,100531.59
2023-05-17T03:41:59.637Z,100536.81
2023-05-17T03:44:29.204Z,100541.81
2023-05-17T03:46:57.902Z,100538.50
2023-05-17T03:49:25.772Z,100532.66
2023-05-17T03:51:54.367Z,100542.78
2023-05-17T03:54:22.035Z,100552.91
2023-05-17T03:56:50.336Z,100540.25
2023-05-17T03:59:20.542Z,100550.47
2023-05-17T04:01:48.408Z,100553.97
2023-05-17T04:04:16.146Z,100553.97
2023-05-17T04:06:43.833Z,100560.69
2023-05-17T04:09:13.784Z,100564.50
2023-05-17T04:11:41.706Z,100562.94
2023-05-17T04:14:09.340Z,100571.72
2023-05-17T04:16:38.325Z,100570.97
2023-05-17T04:19:06.183Z,100579.53
2023-05-17T04:21:33.970Z,100586.25
2023-05-17T04:24:02.306Z,100583.06
2023-05-17T04:26:30.611Z,100592.72
2023-05-17T04:28:58.884Z,100590.28
2023-05-17T04:31:26.467Z,100594.75
2023-05-17T04:33:55.580Z,100594.03
2023-05-17T04:36:23.532Z,100589.22
2023-05-17T04:38:51.863Z,100592.84
2023-05-17T04:41:24.114Z,100595.38
2023-05-17T04:43:51.774Z,100597.00
2023-05-17T04:46:26.689Z,100604.00
2023-05-17T04:48:57.195Z,100603.38
2023-05-17T04:51:26.964Z,100609.28
2023-05-17T04:53:54.832Z,100611.22
2023-05-17T04:56:22.609Z,100607.06
2023-05-17T04:58:52.773Z,100603.38
2023-05-17T05:01:20.854Z,100618.81
2023-05-17T05:03:49.028Z,100616.31
2023-05-17T05:06:18.083Z,100614.66
2023-05-17T05:08:45.757Z,100612.34
2023-05-17T05:11:14.192Z,100624.47
2023-05-17T05:13:42.394Z,100624.78
2023-05-17T05:16:10.171Z,100634.28
2023-05-17T05:18:38.758Z,100634.53
2023-05-17T05:21:06.843Z,100636.63
2023-05-17T05:23:35.945Z,100639.03
2023-05-17T05:26:03.746Z,100637.06
2023-05-17T05:28:31.434Z,100635.34
2023-05-17T05:31:00.668Z,100647.91
2023-05-17T05:33:34.499Z,100639.16
2023-05-17T05:36:02.976Z,100654.25
2023-05-17T05:38:30.783Z,100650.56
2023-05-17T05:41:00.018Z,100649.69
2023-05-17T05:43:27.799Z,100650.13
2023-05-17T05:45:55.612Z,100652.59
2023-05-17T05:48:23.495Z,100652.00
2023-05-17T05:50:51.430Z,100651.81
2023-05-17T05:53:19.913Z,100659.41
2023-05-17T05:55:52.109Z,100656.56
2023-05-17T05:58:22.261Z,100658.06
2023-05-17T06:00:50.751Z,100662.88
2023-05-17T06:03:18.459Z,100659.03
2023-05-17T06:05:46.145Z,100669.91
2023-05-17T06:08:13.871Z,100667.63
2023-05-17T06:10:41.536Z,100670.59
2023-05-17T06:13:10.649Z,100677.91
2023-05-17T06:15:39.704Z,100675.63
2023-05-17T06:18:07.505Z,100681.13
2023-05-17T06:20:35.132Z,100683.16
2023-05-17T06:23:05.100Z,100684.91
2023-05-17T06:25:33.025Z,100678.00
2023-05-17T06:28:02.608Z,100682.81
2023-05-17T06:30:30.568Z,100685.47
2023-05-17T06:33:00.096Z,100676.97
2023-05-17T06:35:28.089Z,100670.97
2023-05-17T06:37:56.779Z,100679.78
2023-05-17T06:40:24.494Z,100689.38
2023-05-17T06:42:52.145Z,100685.75
2023-05-17T06:45:19.800Z,100691.25
2023-05-17T06:47:47.465Z,100690.84
2023-05-17T06:50:16.621Z,100690.56
2023-05-17T06:52:44.300Z,100694.69
2023-05-17T06:55:11.951Z,100698.03
2023-05-17T06:57:39.615Z,100694.28
2023-05-17T07:00:10.947Z,100697.13
2023-05-17T07:02:38.684Z,100706.84
2023-05-17T07:05:07.382Z,100699.28
2023-05-17T07:07:36.426Z,100702.88
2023-05-17T07:10:04.324Z,100705.75
2023-05-17T07:12:31.980Z,100703.47
2023-05-17T07:14:59.578Z,100709.31
2023-05-17T07:17:27.280Z,100713.69
2023-05-17T07:19:55.038Z,100713.84
2023-05-17T07:22:25.699Z,100708.88
2023-05-17T07:24:54.723Z,100710.53
2023-05-17T07:27:22.421Z,100713.94
2023-05-17T07:29:50.189Z,100711.81
2023-05-17T07:32:18.070Z,100707.84
2023-05-17T07:34:49.073Z,100719.38
2023-05-17T07:37:16.736Z,100720.84
2023-05-17T07:39:44.348Z,100713.09
2023-05-17T07:42:14.579Z,100721.22
2023-05-17T07:44:42.304Z,100716.22
2023-05-17T07:47:09.945Z,100720.41
2023-05-17T07:49:37.564Z,100715.69
2023-05-17T07:52:05.666Z,100716.31
2023-05-17T07:54:33.285Z,100709.56
2023-05-17T07:57:01.026Z,100716.91
2023-05-17T07:59:30.007Z,100710.34
2023-05-17T08:01:57.979Z,100712.91
2023-05-17T08:04:25.629Z,100701.88
2023-05-17T08:06:53.309Z,100711.69
2023-05-17T08:09:20.949Z,100711.19
2023-05-17T08:11:48.569Z,100708.09
2023-05-17T08:14:17.321Z,100711.94
2023-05-17T08:16:47.101Z,100711.81
2023-05-17T08:19:16.405Z,100705.06
2023-05-17T08:21:46.185Z,100704.66
2023-05-17T08:24:13.856Z,100712.47
2023-05-17T08:26:41.935Z,100707.66
2023-05-17T08:29:09.733Z,100707.38
2023-05-17T08:31:37.411Z,100705.69
2023-05-17T08:34:06.506Z,100695.44
2023-05-17T08:36:34.381Z,100700.75
2023-05-17T08:39:02.097Z,100701.41
2023-05-17T08:41:30.154Z,100696.34
2023-05-17T08:43:59.943Z,100696.72
2023-05-17T08:46:28.692Z,100693.34
2023-05-17T08:48:59.967Z,100696.44
2023-05-17T08:51:29.846Z,100689.84
2023-05-17T08:53:57.616Z,100690.00
2023-05-17T08:56:28.294Z,100689.38
2023-05-17T08:58:58.205Z,100687.81
2023-05-17T09:01:28.380Z,100682.91
2023-05-17T09:03:57.376Z,100694.06
2023-05-17T09:06:25.532Z,100686.06
2023-05-17T09:08:55.700Z,100688.06
2023-05-17T09:11:27.888Z,100688.09
2023-05-17T09:13:58.976Z,100680.59
2023-05-17T09:16:29.107Z,100685.66
2023-05-17T09:18:58.176Z,100692.47
2023-05-17T09:21:28.216Z,100690.81
2023-05-17T09:24:06.459Z,100689.81
2023-05-17T09:26:40.210Z,100697.09
2023-05-17T09:29:12.108Z,100697.59
2023-05-17T09:31:40.201Z,100697.41
2023-05-17T09:34:09.013Z,100689.38
2023-05-17T09:36:38.699Z,100693.84
2023-05-17T09:39:11.984Z,100694.69
2023-05-17T09:41:43.247Z,100696.00
2023-05-17T09:44:12.140Z,100692.16
2023-05-17T09:46:43.073Z,100691.38
2023-05-17T09:49:10.736Z,100691.59
2023-05-17T09:51:42.314Z,100701.22
2023-05-17T09:54:11.901Z,100703.59
2023-05-17T09:56:40.043Z,100704.66
2023-05-17T10:03:28.277Z,100704.94
2023-05-17T10:05:56.165Z,100713.94
2023-05-17T10:08:25.979Z,100708.59
2023-05-17T10:10:57.174Z,100716.06
2023-05-17T10:13:31.469Z,100716.38
2023-05-17T10:16:01.554Z,100711.81
2023-05-17T10:18:31.043Z,100706.53
2023-05-17T10:21:00.462Z,100702.03
2023-05-17T10:23:28.754Z,100710.38
2023-05-17T10:25:57.739Z,100709.09
2023-05-17T10:28:28.395Z,100716.88
2023-05-17T10:30:58.487Z,100702.38
2023-05-17T10:33:28.364Z,100705.88
2023-05-17T10:35:57.260Z,100705.19
2023-05-17T10:38:31.996Z,100705.78
2023-05-17T10:41:05.383Z,100704.53
2023-05-17T10:43:34.192Z,100707.53
2023-05-17T10:46:04.350Z,100711.28
2023-05-17T10:48:32.168Z,100711.81
2023-05-17T10:51:07.735Z,100718.19
2023-05-17T10:53:36.344Z,100707.16
2023-05-17T10:56:05.639Z,100715.53
2023-05-17T10:58:33.315Z,100715.41
2023-05-17T11:01:01.029Z,100716.31
2023-05-17T11:03:30.247Z,100716.53
2023-05-17T11:06:24.741Z,100715.59
2023-05-17T11:09:09.879Z,100716.28
2023-05-17T11:11:38.976Z,100722.38
2023-05-17T11:14:08.706Z,100711.13
2023-05-17T11:16:37.980Z,100712.69
2023-05-17T11:19:10.526Z,100719.56
2023-05-17T11:21:46.707Z,100710.94
2023-05-17T11:24:22.061Z,100709.31
2023-05-17T11:26:51.507Z,100708.75
2023-05-17T11:29:19.201Z,100706.47
2023-05-17T11:31:52.118Z,100708.56
2023-05-17T11:34:19.978Z,100704.53
2023-05-17T11:36:52.906Z,100702.84
2023-05-17T11:39:22.578Z,100709.53
2023-05-17T11:41:53.052Z,100704.44
2023-05-17T11:44:30.684Z,100701.75
2023-05-17T11:47:03.292Z,100708.88
2023-05-17T11:49:36.315Z,100695.00
2023-05-17T11:52:06.086Z,100696.97
2023-05-17T11:54:34.759Z,100697.94
2023-05-17T11:57:05.115Z,100698.69
2023-05-17T11:59:39.752Z,100702.22
2023-05-17T12:02:07.581Z,100703.75
2023-05-17T12:04:38.540Z,100702.69
2023-05-17T12:07:09.606Z,100699.81
2023-05-17T12:09:37.835Z,100701.41
2023-05-17T12:12:07.593Z,100689.31
2023-05-17T12:14:35.739Z,100696.34
2023-05-17T12:17:07.930Z,100682.81
2023-05-17T12:19:35.992Z,100679.84
2023-05-17T12:22:08.149Z,100673.09
2023-05-17T12:24:39.499Z,100671.88
2023-05-17T12:27:08.790Z,100671.13
2023-05-17T12:29:36.342Z,100669.44
2023-05-17T12:32:05.145Z,100681.47
2023-05-17T12:34:33.132Z,100678.00
2023-05-17T12:37:01.068Z,100683.16
2023-05-17T12:39:28.838Z,100681.34
2023-05-17T12:41:57.209Z,100679.66
2023-05-17T12:44:26.432Z,100685.69
2023-05-17T12:46:56.199Z,100674.41
2023-05-17T12:49:24.336Z,100679.31
2023-05-17T12:51:52.010Z,100669.03
2023-05-17T12:54:29.781Z,100670.97
2023-05-17T12:56:57.613Z,100669.47
2023-05-17T12:59:28.642Z,100678.44
2023-05-17T13:01:57.876Z,100676.09
2023-05-17T13:04:31.662Z,100678.78
2023-05-17T13:07:00.879Z,100671.03
2023-05-17T13:09:30.699Z,100668.63
2023-05-17T13:11:59.913Z,100666.97
2023-05-17T13:14:41.208Z,100666.16
2023-05-17T13:17:12.022Z,100656.63
2023-05-17T13:19:40.268Z,100655.72
2023-05-17T13:22:08.633Z,100651.31
2023-05-17T13:24:37.790Z,100649.59
2023-05-17T13:27:06.628Z,100649.59
2023-05-17T13:29:40.125Z,100648.00
2023-05-17T13:32:11.476Z,100651.50
2023-05-17T13:34:39.802Z,100647.16
2023-05-17T13:37:11.474Z,100639.34
2023-05-17T13:39:40.140Z,100637.63
2023-05-17T13:42:07.943Z,100640.22
2023-05-17T13:44:35.635Z,100641.09
2023-05-17T13:47:06.972Z,100643.66
2023-05-17T13:49:36.181Z,100648.03
2023-05-17T13:52:08.373Z,100640.22
2023-05-17T13:54:36.301Z,100632.41
2023-05-17T13:57:04.132Z,100631.53
2023-05-17T13:59:31.888Z,100637.59
2023-05-17T14:01:59.517Z,100632.28
2023-05-17T14:04:27.133Z,100639.34
2023-05-17T14:06:56.301Z,100639.25
2023-05-17T14:09:23.870Z,100634.91
2023-05-17T14:11:51.541Z,100628.81
2023-05-17T14:14:19.217Z,100642.81
2023-05-17T14:16:46.762Z,100639.22
2023-05-17T14:19:14.401Z,100637.34
2023-05-17T14:21:42.014Z,100639.28
2023-05-17T14:24:10.925Z,100626.81
2023-05-17T14:26:38.635Z,100629.22
2023-05-17T14:29:06.671Z,100624.09
2023-05-17T14:31:34.292Z,100614.44
2023-05-17T14:34:03.693Z,100618.00
2023-05-17T14:36:31.736Z,100624.28
2023-05-17T14:39:00.217Z,100615.13
2023-05-17T14:41:29.193Z,100621.75
2023-05-17T14:43:56.791Z,100606.63
2023-05-17T14:46:24.632Z,100608.38
2023-05-17T14:48:52.459Z,100610.09
2023-05-17T14:51:20.284Z,100612.41
2023-05-17T14:53:47.932Z,100599.84
2023-05-17T14:56:16.704Z,100600.09
2023-05-17T14:58:45.651Z,100600.47
2023-05-17T15:01:13.456Z,100600.91
2023-05-17T15:03:41.252Z,100601.59
2023-05-17T15:06:11.645Z,100602.06
2023-05-17T15:08:39.761Z,100600.00
2023-05-17T15:11:07.425Z,100605.47
2023-05-17T15:13:35.012Z,100605.50
2023-05-17T15:16:04.411Z,100600.63
2023-05-17T15:18:32.976Z,100600.00
2023-05-17T15:21:00.749Z,100598.13
2023-05-17T15:23:28.494Z,100592.47
2023-05-17T15:25:56.217Z,100604.66
2023-05-17T15:28:23.906Z,100594.88
2023-05-17T15:31:01.003Z,100594.09
2023-05-17T15:33:30.937Z,100591.28
2023-05-17T15:35:58.895Z,100589.78
2023-05-17T15:38:26.945Z,100594.44
2023-05-17T15:41:03.779Z,100585.41
2023-05-17T15:43:31.967Z,100589.56
2023-05-17T15:45:59.598Z,100580.25
2023-05-17T15:48:29.100Z,100582.50
2023-05-17T15:50:58.813Z,100571.97
2023-05-17T15:53:27.842Z,100574.78
2023-05-17T15:55:55.833Z,100570.00
2023-05-17T15:58:27.683Z,100575.19
2023-05-17T16:00:55.774Z,100571.84
2023-05-17T16:03:23.409Z,100576.66
2023-05-17T16:05:51.468Z,100575.84
2023-05-17T16:08:20.514Z,100569.84
2023-05-17T16:10:48.261Z,100565.09
2023-05-17T16:13:16.177Z,100570.13
2023-05-17T16:15:43.802Z,100566.81
2023-05-17T16:18:13.696Z,100569.41
2023-05-17T16:20:41.530Z,100561.91
2023-05-17T16:23:09.121Z,100568.94
2023-05-17T16:25:38.127Z,100563.44
2023-05-17T16:28:05.787Z,100571.94
2023-05-17T16:30:33.366Z,100567.13
2023-05-17T16:33:01.128Z,100568.94
2023-05-17T16:35:29.185Z,100563.78
2023-05-17T16:37:56.909Z,100557.28
2023-05-17T16:40:24.455Z,100563.88
2023-05-17T16:42:53.363Z,100564.63
2023-05-17T16:45:21.190Z,100560.81
2023-05-17T16:47:48.826Z,100559.50
2023-05-17T16:50:16.856Z,100566.97
2023-05-17T16:52:45.309Z,100555.41
2023-05-17T16:55:13.026Z,100564.22
2023-05-17T16:57:41.903Z,100567.41
2023-05-17T17:00:12.719Z,100561.13
2023-05-17T17:02:40.391Z,100563.53
2023-05-17T17:05:10.161Z,100558.84
2023-05-17T17:07:37.886Z,100563.09
2023-05-17T17:10:06.278Z,100556.00
2023-05-17T17:12:33.901Z,100552.03
2023-05-17T17:15:02.190Z,100556.84
2023-05-17T17:17:31.807Z,100551.72
2023-05-17T17:19:59.502Z,100550.09
2023-05-17T17:22:27.216Z,100549.53
2023-05-17T17:24:54.939Z,100554.03
2023-05-17T17:27:22.519Z,100543.59
2023-05-17T17:29:50.101Z,100556.66
2023-05-17T17:32:17.720Z,100548.78
2023-05-17T17:34:46.702Z,100544.84
2023-05-17T17:37:14.294Z,100547.75
2023-05-17T17:39:42.203Z,100555.91
2023-05-17T17:42:10.763Z,100549.03
2023-05-17T17:44:38.412Z,100548.09
2023-05-17T17:47:06.393Z,100553.47
2023-05-17T17:49:35.837Z,100551.00
2023-05-17T17:52:04.922Z,100559.94
2023-05-17T17:54:32.558Z,100545.88
2023-05-17T17:57:00.203Z,100549.00
2023-05-17T17:59:27.813Z,100555.97
2023-05-17T18:01:55.501Z,100545.91
2023-05-17T18:04:23.251Z,100552.06
2023-05-17T18:06:50.878Z,100551.84
2023-05-17T18:09:19.973Z,100549.19
2023-05-17T18:11:47.750Z,100547.94
2023-05-17T18:14:15.612Z,100549.81
2023-05-17T18:16:43.306Z,100552.16
2023-05-17T18:19:11.063Z,100553.38
2023-05-17T18:21:38.702Z,100556.31
2023-05-17T18:24:06.871Z,100557.50
2023-05-17T18:26:36.000Z,100561.03
2023-05-17T18:29:03.935Z,100567.13
2023-05-17T18:31:31.754Z,100569.69
2023-05-17T18:33:59.366Z,100567.84
2023-05-17T18:36:27.623Z,100565.09
2023-05-17T18:38:58.466Z,100577.84
2023-05-17T18:41:26.224Z,100559.47
2023-05-17T18:43:55.823Z,100566.09
2023-05-17T18:46:23.493Z,100573.56
2023-05-17T18:48:52.567Z,100562.75
2023-05-17T18:51:20.219Z,100578.00
2023-05-17T18:53:47.847Z,100574.16
2023-05-17T18:56:22.377Z,100581.69
2023-05-17T18:58:51.771Z,100584.63
2023-05-17T19:01:21.577Z,100578.09
2023-05-17T19:03:51.356Z,100580.75
2023-05-17T19:06:19.507Z,100587.16
2023-05-17T19:08:47.132Z,100588.88
2023-05-17T19:11:14.804Z,100586.84
2023-05-17T19:13:42.692Z,100587.63
2023-05-17T19:16:10.462Z,100596.25
2023-05-17T19:18:39.470Z,100594.09
2023-05-17T19:21:07.401Z,100600.88
2023-05-17T19:23:35.942Z,100608.63
2023-05-17T19:26:03.986Z,100612.00
2023-05-17T19:28:32.951Z,100604.88
2023-05-17T19:31:00.792Z,100616.59
2023-05-17T19:33:28.364Z,100610.06
2023-05-17T19:35:57.274Z,100619.31
2023-05-17T19:38:24.815Z,100620.00
2023-05-17T19:40:52.549Z,100619.69
2023-05-17T19:43:20.229Z,100621.94
2023-05-17T19:45:47.904Z,100625.91
2023-05-17T19:48:15.489Z,100617.75
2023-05-17T19:50:43.112Z,100625.06
2023-05-17T19:53:12.047Z,100623.88
2023-05-17T19:55:40.942Z,100621.75
2023-05-17T19:58:08.571Z,100624.91
2023-05-17T20:00:37.484Z,100620.41
2023-05-17T20:03:06.135Z,100632.88
2023-05-17T20:05:34.100Z,100625.63
2023-05-17T20:08:02.505Z,100627.28
2023-05-17T20:10:32.165Z,100633.09
2023-05-17T20:12:59.805Z,100638.88
2023-05-17T20:15:27.457Z,100631.75
2023-05-17T20:17:55.215Z,100638.44
2023-05-17T20:20:23.406Z,100637.03
2023-05-17T20:22:51.005Z,100633.94
2023-05-17T20:25:18.627Z,100645.81
2023-05-17T20:27:47.548Z,100641.78
2023-05-17T20:30:15.217Z,100643.22
2023-05-17T20:32:42.918Z,100636.09
2023-05-17T20:35:12.170Z,100642.84
2023-05-17T20:37:39.858Z,100646.06
2023-05-17T20:40:09.093Z,100649.13
2023-05-17T20:42:38.091Z,100648.91
2023-05-17T20:45:08.796Z,100652.19
2023-05-17T20:47:36.681Z,100648.47
2023-05-17T20:50:04.866Z,100644.88
2023-05-17T20:52:39.356Z,100650.63
2023-05-17T20:55:08.875Z,100642.84
2023-05-17T20:57:36.592Z,100650.47
2023-05-17T21:00:06.125Z,100655.56
2023-05-17T21:02:35.112Z,100649.47
2023-05-17T21:05:03.260Z,100653.78
2023-05-17T21:07:30.868Z,100657.06
2023-05-17T21:09:58.587Z,100648.19
2023-05-17T21:12:26.370Z,100655.91
2023-05-17T21:15:07.880Z,100656.53
2023-05-17T21:17:42.957Z,100658.81
2023-05-17T21:20:11.642Z,100646.59
2023-05-17T21:22:39.273Z,100648.09
2023-05-17T21:25:07.875Z,100658.28
2023-05-17T21:27:35.655Z,100654.72
2023-05-17T21:30:03.422Z,100659.81
2023-05-17T21:32:31.066Z,100653.84
2023-05-17T21:35:00.024Z,100652.84
2023-05-17T21:37:27.698Z,100648.47
2023-05-17T21:39:55.339Z,100651.63
2023-05-17T21:42:22.968Z,100652.81
2023-05-17T21:44:50.644Z,100650.28
2023-05-17T21:47:18.252Z,100653.44
2023-05-17T21:49:45.829Z,100647.22
2023-05-17T21:52:14.800Z,100648.78
2023-05-17T21:54:42.521Z,100655.50
2023-05-17T21:57:10.208Z,100652.63
2023-05-17T21:59:37.844Z,100646.41
2023-05-17T22:02:06.714Z,100648.78
2023-05-17T22:04:34.340Z,100649.50
2023-05-17T22:07:01.955Z,100645.03
2023-05-17T22:09:30.963Z,100653.41
2023-05-17T22:11:59.600Z,100640.28
2023-05-17T22:14:33.053Z,100644.44
2023-05-17T22:17:00.784Z,100649.63
2023-05-17T22:19:30.196Z,100649.38
2023-05-17T22:21:58.115Z,100649.28
2023-05-17T22:24:25.792Z,100647.38
2023-05-17T22:26:55.046Z,100656.00
2023-05-17T22:29:22.730Z,100656.00
2023-05-17T22:31:53.098Z,100653.44
2023-05-17T22:34:21.774Z,100655.13
2023-05-17T22:36:49.439Z,100650.88
2023-05-17T22:39:16.998Z,100652.50
2023-05-17T22:41:44.663Z,100657.66
2023-05-17T22:44:13.559Z,100663.59
2023-05-17T22:46:41.946Z,100656.69
2023-05-17T22:49:09.679Z,100655.63
2023-05-17T22:51:38.811Z,100654.34
2023-05-17T22:54:06.825Z,100651.59
2023-05-17T22:56:34.430Z,100654.66
2023-05-17T22:59:01.992Z,100658.59
2023-05-17T23:01:31.056Z,100664.97
2023-05-17T23:03:58.798Z,100663.56
2023-05-17T23:06:26.425Z,100656.38
2023-05-17T23:08:53.999Z,100657.84
2023-05-17T23:11:21.578Z,100658.31
2023-05-17T23:13:49.131Z,100660.38
2023-05-17T23:16:16.709Z,100660.94
2023-05-17T23:18:46.293Z,100669.31
2023-05-17T23:21:14.021Z,100660.44
2023-05-17T23:23:41.656Z,100664.63
2023-05-17T23:26:09.250Z,100662.13
2023-05-17T23:28:37.685Z,100664.47
2023-05-17T23:31:05.702Z,100664.34
2023-05-17T23:33:33.355Z,100657.16
2023-05-17T23:36:02.307Z,100658.47
2023-05-17T23:38:29.955Z,100652.47
2023-05-17T23:40:58.171Z,100655.13
2023-05-17T23:43:26.208Z,100665.19
2023-05-17T23:45:53.869Z,100653.13
2023-05-17T23:48:25.526Z,100661.69
2023-05-17T23:50:53.305Z,100647.78
2023-05-17T23:53:23.486Z,100652.78
2023-05-17T23:55:51.160Z,100655.25
2023-05-17T23:58:18.772Z,100648.22
